sensor_id;sensor_type;location;lat;lon;timestamp;P1;durP1;ratioP1;P2;durP2;ratioP2
31716;SDS011;18301;51.076;17.046;2023-11-21T00:01:07;7.85;;;2.40;;
31716;SDS011;18301;51.076;17.046;2023-11-21T00:06:10;5.07;;;1.70;;
31716;SDS011;18301;51.076;17.046;2023-11-21T00:11:11;7.40;;;2.47;;
31716;SDS011;18301;51.076;17.046;2023-11-21T00:16:13;3.65;;;2.20;;
31716;SDS011;18301;51.076;17.046;2023-11-21T00:21:15;6.28;;;2.17;;
31716;SDS011;18301;51.076;17.046;2023-11-21T00:26:16;3.35;;;1.90;;
31716;SDS011;18301;51.076;17.046;2023-11-21T00:31:18;8.77;;;2.47;;
31716;SDS011;18301;51.076;17.046;2023-11-21T00:36:20;4.57;;;2.13;;
31716;SDS011;18301;51.076;17.046;2023-11-21T00:41:21;3.47;;;1.98;;
31716;SDS011;18301;51.076;17.046;2023-11-21T00:46:23;6.57;;;2.40;;
31716;SDS011;18301;51.076;17.046;2023-11-21T00:51:25;6.88;;;2.45;;
31716;SDS011;18301;51.076;17.046;2023-11-21T00:56:27;5.93;;;1.95;;
31716;SDS011;18301;51.076;17.046;2023-11-21T01:01:28;5.50;;;2.20;;
31716;SDS011;18301;51.076;17.046;2023-11-21T01:06:30;7.28;;;2.30;;
31716;SDS011;18301;51.076;17.046;2023-11-21T01:11:32;3.67;;;1.90;;
31716;SDS011;18301;51.076;17.046;2023-11-21T01:16:37;3.70;;;2.17;;
31716;SDS011;18301;51.076;17.046;2023-11-21T01:21:38;5.18;;;2.40;;
31716;SDS011;18301;51.076;17.046;2023-11-21T01:26:40;5.47;;;2.60;;
31716;SDS011;18301;51.076;17.046;2023-11-21T01:31:41;5.05;;;2.35;;
31716;SDS011;18301;51.076;17.046;2023-11-21T01:36:45;5.68;;;2.55;;
31716;SDS011;18301;51.076;17.046;2023-11-21T01:41:47;5.00;;;2.33;;
31716;SDS011;18301;51.076;17.046;2023-11-21T01:46:49;3.92;;;2.30;;
31716;SDS011;18301;51.076;17.046;2023-11-21T01:51:50;5.60;;;2.30;;
31716;SDS011;18301;51.076;17.046;2023-11-21T01:56:53;7.38;;;2.20;;
31716;SDS011;18301;51.076;17.046;2023-11-21T02:01:54;4.18;;;2.38;;
31716;SDS011;18301;51.076;17.046;2023-11-21T02:06:57;7.45;;;3.75;;
31716;SDS011;18301;51.076;17.046;2023-11-21T02:11:59;7.38;;;2.80;;
31716;SDS011;18301;51.076;17.046;2023-11-21T02:17:00;6.50;;;2.90;;
31716;SDS011;18301;51.076;17.046;2023-11-21T02:22:02;5.25;;;2.35;;
31716;SDS011;18301;51.076;17.046;2023-11-21T02:27:07;5.22;;;2.80;;
31716;SDS011;18301;51.076;17.046;2023-11-21T02:32:09;4.95;;;2.60;;
31716;SDS011;18301;51.076;17.046;2023-11-21T02:37:12;4.75;;;2.97;;
31716;SDS011;18301;51.076;17.046;2023-11-21T02:42:13;6.35;;;2.40;;
31716;SDS011;18301;51.076;17.046;2023-11-21T02:47:15;6.65;;;2.60;;
31716;SDS011;18301;51.076;17.046;2023-11-21T02:52:16;5.18;;;2.53;;
31716;SDS011;18301;51.076;17.046;2023-11-21T02:57:18;6.80;;;2.95;;
31716;SDS011;18301;51.076;17.046;2023-11-21T03:02:20;5.32;;;2.83;;
31716;SDS011;18301;51.076;17.046;2023-11-21T03:07:21;6.05;;;3.08;;
31716;SDS011;18301;51.076;17.046;2023-11-21T03:12:23;8.50;;;3.40;;
31716;SDS011;18301;51.076;17.046;2023-11-21T03:17:24;4.28;;;3.03;;
31716;SDS011;18301;51.076;17.046;2023-11-21T03:22:26;5.18;;;2.95;;
31716;SDS011;18301;51.076;17.046;2023-11-21T03:27:27;5.00;;;2.72;;
31716;SDS011;18301;51.076;17.046;2023-11-21T03:32:29;7.90;;;3.40;;
31716;SDS011;18301;51.076;17.046;2023-11-21T03:37:33;9.35;;;3.80;;
31716;SDS011;18301;51.076;17.046;2023-11-21T03:42:34;5.93;;;2.90;;
31716;SDS011;18301;51.076;17.046;2023-11-21T03:47:36;7.03;;;3.45;;
31716;SDS011;18301;51.076;17.046;2023-11-21T03:52:38;9.07;;;3.40;;
31716;SDS011;18301;51.076;17.046;2023-11-21T03:57:40;6.57;;;3.40;;
31716;SDS011;18301;51.076;17.046;2023-11-21T04:02:41;10.25;;;3.60;;
31716;SDS011;18301;51.076;17.046;2023-11-21T04:07:43;6.78;;;3.22;;
31716;SDS011;18301;51.076;17.046;2023-11-21T04:12:45;7.97;;;3.55;;
31716;SDS011;18301;51.076;17.046;2023-11-21T04:17:46;6.82;;;3.50;;
31716;SDS011;18301;51.076;17.046;2023-11-21T04:22:48;6.03;;;3.55;;
31716;SDS011;18301;51.076;17.046;2023-11-21T04:27:50;6.88;;;3.47;;
31716;SDS011;18301;51.076;17.046;2023-11-21T04:32:51;7.75;;;3.40;;
31716;SDS011;18301;51.076;17.046;2023-11-21T04:37:53;5.55;;;3.30;;
31716;SDS011;18301;51.076;17.046;2023-11-21T04:42:54;5.28;;;2.90;;
31716;SDS011;18301;51.076;17.046;2023-11-21T04:47:58;5.78;;;3.17;;
31716;SDS011;18301;51.076;17.046;2023-11-21T04:52:59;9.98;;;3.95;;
31716;SDS011;18301;51.076;17.046;2023-11-21T04:58:01;7.47;;;3.17;;
31716;SDS011;18301;51.076;17.046;2023-11-21T05:03:03;6.20;;;3.33;;
31716;SDS011;18301;51.076;17.046;2023-11-21T05:08:06;5.50;;;2.92;;
31716;SDS011;18301;51.076;17.046;2023-11-21T05:13:08;7.07;;;3.70;;
31716;SDS011;18301;51.076;17.046;2023-11-21T05:18:11;6.43;;;4.30;;
31716;SDS011;18301;51.076;17.046;2023-11-21T05:23:15;9.73;;;3.97;;
31716;SDS011;18301;51.076;17.046;2023-11-21T05:28:16;7.57;;;4.30;;
31716;SDS011;18301;51.076;17.046;2023-11-21T05:33:18;9.10;;;3.92;;
31716;SDS011;18301;51.076;17.046;2023-11-21T05:38:21;7.47;;;4.47;;
31716;SDS011;18301;51.076;17.046;2023-11-21T05:43:23;8.40;;;4.65;;
31716;SDS011;18301;51.076;17.046;2023-11-21T05:48:24;7.57;;;4.20;;
31716;SDS011;18301;51.076;17.046;2023-11-21T05:53:26;7.93;;;4.15;;
31716;SDS011;18301;51.076;17.046;2023-11-21T05:58:28;6.07;;;3.60;;
31716;SDS011;18301;51.076;17.046;2023-11-21T06:03:30;8.50;;;3.80;;
31716;SDS011;18301;51.076;17.046;2023-11-21T06:08:31;6.85;;;4.10;;
31716;SDS011;18301;51.076;17.046;2023-11-21T06:13:33;6.75;;;3.40;;
31716;SDS011;18301;51.076;17.046;2023-11-21T06:18:34;9.20;;;4.18;;
31716;SDS011;18301;51.076;17.046;2023-11-21T06:23:36;8.20;;;4.10;;
31716;SDS011;18301;51.076;17.046;2023-11-21T06:28:37;8.70;;;3.72;;
31716;SDS011;18301;51.076;17.046;2023-11-21T06:33:39;7.70;;;3.88;;
31716;SDS011;18301;51.076;17.046;2023-11-21T06:38:40;7.95;;;3.97;;
31716;SDS011;18301;51.076;17.046;2023-11-21T06:43:42;8.80;;;4.03;;
31716;SDS011;18301;51.076;17.046;2023-11-21T06:48:48;7.95;;;4.25;;
31716;SDS011;18301;51.076;17.046;2023-11-21T06:53:50;7.88;;;3.75;;
31716;SDS011;18301;51.076;17.046;2023-11-21T06:58:52;7.32;;;4.15;;
31716;SDS011;18301;51.076;17.046;2023-11-21T07:03:55;8.68;;;4.35;;
31716;SDS011;18301;51.076;17.046;2023-11-21T07:08:56;6.75;;;4.13;;
31716;SDS011;18301;51.076;17.046;2023-11-21T07:13:58;5.82;;;3.20;;
31716;SDS011;18301;51.076;17.046;2023-11-21T07:19:00;8.25;;;4.25;;
31716;SDS011;18301;51.076;17.046;2023-11-21T07:24:04;8.00;;;4.25;;
31716;SDS011;18301;51.076;17.046;2023-11-21T07:29:08;8.15;;;4.13;;
31716;SDS011;18301;51.076;17.046;2023-11-21T07:34:09;10.27;;;4.38;;
31716;SDS011;18301;51.076;17.046;2023-11-21T07:39:13;10.35;;;4.78;;
31716;SDS011;18301;51.076;17.046;2023-11-21T07:44:17;9.43;;;4.95;;
31716;SDS011;18301;51.076;17.046;2023-11-21T07:49:20;7.03;;;4.15;;
31716;SDS011;18301;51.076;17.046;2023-11-21T07:54:24;12.07;;;5.00;;
31716;SDS011;18301;51.076;17.046;2023-11-21T07:59:26;10.02;;;4.95;;
31716;SDS011;18301;51.076;17.046;2023-11-21T08:04:27;9.85;;;4.82;;
31716;SDS011;18301;51.076;17.046;2023-11-21T08:09:32;9.18;;;4.53;;
31716;SDS011;18301;51.076;17.046;2023-11-21T08:14:35;11.27;;;6.20;;
31716;SDS011;18301;51.076;17.046;2023-11-21T08:19:40;15.68;;;8.00;;
31716;SDS011;18301;51.076;17.046;2023-11-21T08:24:42;12.18;;;6.97;;
31716;SDS011;18301;51.076;17.046;2023-11-21T08:29:43;11.07;;;5.40;;
31716;SDS011;18301;51.076;17.046;2023-11-21T08:34:45;8.00;;;5.15;;
31716;SDS011;18301;51.076;17.046;2023-11-21T08:39:49;9.65;;;4.88;;
31716;SDS011;18301;51.076;17.046;2023-11-21T08:44:50;7.93;;;4.85;;
31716;SDS011;18301;51.076;17.046;2023-11-21T08:49:52;11.40;;;5.53;;
31716;SDS011;18301;51.076;17.046;2023-11-21T08:54:54;9.32;;;4.72;;
31716;SDS011;18301;51.076;17.046;2023-11-21T08:59:58;8.98;;;4.53;;
31716;SDS011;18301;51.076;17.046;2023-11-21T09:05:00;10.82;;;4.88;;
31716;SDS011;18301;51.076;17.046;2023-11-21T09:10:04;9.88;;;5.03;;
31716;SDS011;18301;51.076;17.046;2023-11-21T09:15:08;12.60;;;5.55;;
31716;SDS011;18301;51.076;17.046;2023-11-21T09:20:13;10.40;;;5.30;;
31716;SDS011;18301;51.076;17.046;2023-11-21T09:25:16;12.85;;;5.20;;
31716;SDS011;18301;51.076;17.046;2023-11-21T09:30:17;9.07;;;4.78;;
31716;SDS011;18301;51.076;17.046;2023-11-21T09:35:19;12.10;;;5.35;;
31716;SDS011;18301;51.076;17.046;2023-11-21T09:40:21;10.02;;;4.90;;
31716;SDS011;18301;51.076;17.046;2023-11-21T09:45:25;9.93;;;4.43;;
31716;SDS011;18301;51.076;17.046;2023-11-21T09:50:32;8.88;;;4.53;;
31716;SDS011;18301;51.076;17.046;2023-11-21T09:55:34;8.93;;;4.65;;
31716;SDS011;18301;51.076;17.046;2023-11-21T10:00:42;6.38;;;4.07;;
31716;SDS011;18301;51.076;17.046;2023-11-21T10:05:48;10.43;;;5.38;;
31716;SDS011;18301;51.076;17.046;2023-11-21T10:10:53;11.10;;;5.45;;
31716;SDS011;18301;51.076;17.046;2023-11-21T10:15:55;10.25;;;5.25;;
31716;SDS011;18301;51.076;17.046;2023-11-21T10:20:59;8.75;;;4.68;;
31716;SDS011;18301;51.076;17.046;2023-11-21T10:26:01;9.15;;;5.88;;
31716;SDS011;18301;51.076;17.046;2023-11-21T10:31:16;8.65;;;5.30;;
31716;SDS011;18301;51.076;17.046;2023-11-21T10:36:24;10.05;;;5.20;;
31716;SDS011;18301;51.076;17.046;2023-11-21T10:41:29;7.20;;;4.63;;
31716;SDS011;18301;51.076;17.046;2023-11-21T10:46:30;8.75;;;5.45;;
31716;SDS011;18301;51.076;17.046;2023-11-21T10:51:32;10.13;;;5.00;;
31716;SDS011;18301;51.076;17.046;2023-11-21T10:56:33;7.40;;;4.78;;
31716;SDS011;18301;51.076;17.046;2023-11-21T11:01:45;11.70;;;4.60;;
31716;SDS011;18301;51.076;17.046;2023-11-21T11:06:50;13.57;;;8.23;;
31716;SDS011;18301;51.076;17.046;2023-11-21T11:11:55;16.63;;;9.75;;
31716;SDS011;18301;51.076;17.046;2023-11-21T11:16:56;21.80;;;11.65;;
31716;SDS011;18301;51.076;17.046;2023-11-21T11:22:04;21.05;;;10.98;;
31716;SDS011;18301;51.076;17.046;2023-11-21T11:27:21;27.77;;;15.38;;
31716;SDS011;18301;51.076;17.046;2023-11-21T11:32:50;32.25;;;15.88;;
31716;SDS011;18301;51.076;17.046;2023-11-21T11:38:00;25.42;;;14.73;;
31716;SDS011;18301;51.076;17.046;2023-11-21T11:43:02;32.72;;;17.50;;
31716;SDS011;18301;51.076;17.046;2023-11-21T11:48:05;28.60;;;16.00;;
31716;SDS011;18301;51.076;17.046;2023-11-21T11:53:13;26.55;;;14.77;;
31716;SDS011;18301;51.076;17.046;2023-11-21T11:58:16;26.38;;;13.85;;
31716;SDS011;18301;51.076;17.046;2023-11-21T12:03:19;28.30;;;14.05;;
31716;SDS011;18301;51.076;17.046;2023-11-21T12:08:20;22.23;;;13.13;;
31716;SDS011;18301;51.076;17.046;2023-11-21T12:13:22;25.65;;;13.80;;
31716;SDS011;18301;51.076;17.046;2023-11-21T12:18:24;23.52;;;13.18;;
31716;SDS011;18301;51.076;17.046;2023-11-21T12:23:27;20.63;;;11.38;;
31716;SDS011;18301;51.076;17.046;2023-11-21T12:28:29;21.15;;;12.00;;
31716;SDS011;18301;51.076;17.046;2023-11-21T12:33:30;22.45;;;11.90;;
31716;SDS011;18301;51.076;17.046;2023-11-21T12:38:34;21.60;;;11.40;;
31716;SDS011;18301;51.076;17.046;2023-11-21T12:43:36;20.13;;;11.05;;
31716;SDS011;18301;51.076;17.046;2023-11-21T12:48:43;22.75;;;12.38;;
31716;SDS011;18301;51.076;17.046;2023-11-21T12:53:47;22.02;;;12.00;;
31716;SDS011;18301;51.076;17.046;2023-11-21T12:58:49;15.38;;;9.70;;
31716;SDS011;18301;51.076;17.046;2023-11-21T13:03:52;15.75;;;9.10;;
31716;SDS011;18301;51.076;17.046;2023-11-21T13:08:54;14.38;;;8.50;;
31716;SDS011;18301;51.076;17.046;2023-11-21T13:13:58;12.98;;;8.27;;
31716;SDS011;18301;51.076;17.046;2023-11-21T13:19:02;12.95;;;8.52;;
31716;SDS011;18301;51.076;17.046;2023-11-21T13:24:04;13.23;;;8.70;;
31716;SDS011;18301;51.076;17.046;2023-11-21T13:29:06;13.15;;;8.48;;
31716;SDS011;18301;51.076;17.046;2023-11-21T13:34:08;9.60;;;6.32;;
31716;SDS011;18301;51.076;17.046;2023-11-21T13:39:10;9.27;;;6.15;;
31716;SDS011;18301;51.076;17.046;2023-11-21T13:44:17;8.27;;;5.30;;
31716;SDS011;18301;51.076;17.046;2023-11-21T13:49:37;10.60;;;6.68;;
31716;SDS011;18301;51.076;17.046;2023-11-21T13:54:42;10.00;;;6.97;;
31716;SDS011;18301;51.076;17.046;2023-11-21T13:59:43;9.10;;;6.05;;
31716;SDS011;18301;51.076;17.046;2023-11-21T14:04:45;10.73;;;5.72;;
31716;SDS011;18301;51.076;17.046;2023-11-21T14:09:57;9.48;;;7.07;;
31716;SDS011;18301;51.076;17.046;2023-11-21T14:15:00;9.43;;;6.32;;
31716;SDS011;18301;51.076;17.046;2023-11-21T14:20:02;9.43;;;5.00;;
31716;SDS011;18301;51.076;17.046;2023-11-21T14:25:06;7.85;;;5.35;;
31716;SDS011;18301;51.076;17.046;2023-11-21T14:30:08;6.78;;;4.28;;
31716;SDS011;18301;51.076;17.046;2023-11-21T14:35:13;8.27;;;5.53;;
31716;SDS011;18301;51.076;17.046;2023-11-21T14:40:16;8.88;;;5.65;;
31716;SDS011;18301;51.076;17.046;2023-11-21T14:45:19;8.30;;;5.50;;
31716;SDS011;18301;51.076;17.046;2023-11-21T14:50:21;6.90;;;4.53;;
31716;SDS011;18301;51.076;17.046;2023-11-21T14:55:41;6.85;;;5.00;;
31716;SDS011;18301;51.076;17.046;2023-11-21T15:00:55;8.57;;;5.35;;
31716;SDS011;18301;51.076;17.046;2023-11-21T15:05:59;10.60;;;6.20;;
31716;SDS011;18301;51.076;17.046;2023-11-21T15:11:20;9.50;;;7.00;;
31716;SDS011;18301;51.076;17.046;2023-11-21T15:16:26;11.70;;;7.25;;
31716;SDS011;18301;51.076;17.046;2023-11-21T15:21:28;11.82;;;7.35;;
31716;SDS011;18301;51.076;17.046;2023-11-21T15:26:29;10.93;;;7.32;;
31716;SDS011;18301;51.076;17.046;2023-11-21T15:31:31;10.88;;;7.38;;
31716;SDS011;18301;51.076;17.046;2023-11-21T15:36:32;13.50;;;7.80;;
31716;SDS011;18301;51.076;17.046;2023-11-21T15:41:34;10.45;;;7.07;;
31716;SDS011;18301;51.076;17.046;2023-11-21T15:46:37;13.00;;;8.25;;
31716;SDS011;18301;51.076;17.046;2023-11-21T15:51:43;10.02;;;7.05;;
31716;SDS011;18301;51.076;17.046;2023-11-21T15:56:54;10.38;;;6.95;;
31716;SDS011;18301;51.076;17.046;2023-11-21T16:02:00;10.60;;;6.97;;
31716;SDS011;18301;51.076;17.046;2023-11-21T16:07:06;12.18;;;7.70;;
31716;SDS011;18301;51.076;17.046;2023-11-21T16:12:08;10.23;;;7.07;;
31716;SDS011;18301;51.076;17.046;2023-11-21T16:17:11;12.15;;;8.07;;
31716;SDS011;18301;51.076;17.046;2023-11-21T16:22:13;11.40;;;7.88;;
31716;SDS011;18301;51.076;17.046;2023-11-21T16:27:15;11.90;;;7.40;;
31716;SDS011;18301;51.076;17.046;2023-11-21T16:32:18;10.32;;;7.32;;
31716;SDS011;18301;51.076;17.046;2023-11-21T16:37:21;13.45;;;7.60;;
31716;SDS011;18301;51.076;17.046;2023-11-21T16:42:22;55.35;;;28.58;;
31716;SDS011;18301;51.076;17.046;2023-11-21T16:47:24;16.40;;;10.23;;
31716;SDS011;18301;51.076;17.046;2023-11-21T16:52:30;18.17;;;10.57;;
31716;SDS011;18301;51.076;17.046;2023-11-21T16:57:32;17.70;;;10.55;;
31716;SDS011;18301;51.076;17.046;2023-11-21T17:02:37;19.58;;;12.70;;
31716;SDS011;18301;51.076;17.046;2023-11-21T17:07:42;15.80;;;9.38;;
31716;SDS011;18301;51.076;17.046;2023-11-21T17:12:45;15.00;;;8.55;;
31716;SDS011;18301;51.076;17.046;2023-11-21T17:17:46;12.73;;;7.78;;
31716;SDS011;18301;51.076;17.046;2023-11-21T17:22:48;12.55;;;8.50;;
31716;SDS011;18301;51.076;17.046;2023-11-21T17:27:49;14.85;;;9.25;;
31716;SDS011;18301;51.076;17.046;2023-11-21T17:32:52;12.85;;;8.35;;
31716;SDS011;18301;51.076;17.046;2023-11-21T17:37:54;12.93;;;8.90;;
31716;SDS011;18301;51.076;17.046;2023-11-21T17:42:56;16.08;;;9.52;;
31716;SDS011;18301;51.076;17.046;2023-11-21T17:47:57;18.55;;;10.02;;
31716;SDS011;18301;51.076;17.046;2023-11-21T17:52:59;17.27;;;10.15;;
31716;SDS011;18301;51.076;17.046;2023-11-21T17:58:01;14.85;;;9.70;;
31716;SDS011;18301;51.076;17.046;2023-11-21T18:03:02;14.73;;;9.73;;
31716;SDS011;18301;51.076;17.046;2023-11-21T18:08:05;17.92;;;11.18;;
31716;SDS011;18301;51.076;17.046;2023-11-21T18:13:08;19.67;;;11.80;;
31716;SDS011;18301;51.076;17.046;2023-11-21T18:18:09;18.55;;;11.68;;
31716;SDS011;18301;51.076;17.046;2023-11-21T18:23:11;18.40;;;10.88;;
31716;SDS011;18301;51.076;17.046;2023-11-21T18:28:13;19.15;;;12.27;;
31716;SDS011;18301;51.076;17.046;2023-11-21T18:33:15;20.35;;;12.20;;
31716;SDS011;18301;51.076;17.046;2023-11-21T18:38:18;23.08;;;13.07;;
31716;SDS011;18301;51.076;17.046;2023-11-21T18:43:21;23.88;;;13.50;;
31716;SDS011;18301;51.076;17.046;2023-11-21T18:48:23;33.97;;;16.45;;
31716;SDS011;18301;51.076;17.046;2023-11-21T18:53:30;23.73;;;13.38;;
31716;SDS011;18301;51.076;17.046;2023-11-21T18:58:35;22.20;;;13.45;;
31716;SDS011;18301;51.076;17.046;2023-11-21T19:03:37;22.23;;;12.73;;
31716;SDS011;18301;51.076;17.046;2023-11-21T19:08:40;24.70;;;13.98;;
31716;SDS011;18301;51.076;17.046;2023-11-21T19:13:42;35.28;;;17.73;;
31716;SDS011;18301;51.076;17.046;2023-11-21T19:18:44;27.88;;;15.70;;
31716;SDS011;18301;51.076;17.046;2023-11-21T19:23:46;28.27;;;17.08;;
31716;SDS011;18301;51.076;17.046;2023-11-21T19:28:48;35.58;;;19.48;;
31716;SDS011;18301;51.076;17.046;2023-11-21T19:33:49;31.42;;;18.00;;
31716;SDS011;18301;51.076;17.046;2023-11-21T19:38:52;33.00;;;17.88;;
31716;SDS011;18301;51.076;17.046;2023-11-21T19:43:53;27.85;;;16.02;;
31716;SDS011;18301;51.076;17.046;2023-11-21T19:48:56;25.60;;;15.27;;
31716;SDS011;18301;51.076;17.046;2023-11-21T19:53:58;28.15;;;15.65;;
31716;SDS011;18301;51.076;17.046;2023-11-21T19:59:00;28.33;;;14.75;;
31716;SDS011;18301;51.076;17.046;2023-11-21T20:04:02;26.40;;;15.82;;
31716;SDS011;18301;51.076;17.046;2023-11-21T20:09:03;25.95;;;16.23;;
31716;SDS011;18301;51.076;17.046;2023-11-21T20:14:05;27.52;;;16.33;;
31716;SDS011;18301;51.076;17.046;2023-11-21T20:19:07;27.85;;;15.48;;
31716;SDS011;18301;51.076;17.046;2023-11-21T20:24:09;28.63;;;16.30;;
31716;SDS011;18301;51.076;17.046;2023-11-21T20:29:13;23.02;;;13.90;;
31716;SDS011;18301;51.076;17.046;2023-11-21T20:34:15;26.05;;;14.23;;
31716;SDS011;18301;51.076;17.046;2023-11-21T20:39:16;39.03;;;20.65;;
31716;SDS011;18301;51.076;17.046;2023-11-21T20:44:19;31.88;;;17.10;;
31716;SDS011;18301;51.076;17.046;2023-11-21T20:49:22;25.75;;;14.50;;
31716;SDS011;18301;51.076;17.046;2023-11-21T20:54:29;38.03;;;19.70;;
31716;SDS011;18301;51.076;17.046;2023-11-21T20:59:31;42.70;;;20.73;;
31716;SDS011;18301;51.076;17.046;2023-11-21T21:04:33;32.05;;;17.48;;
31716;SDS011;18301;51.076;17.046;2023-11-21T21:09:34;29.60;;;17.33;;
31716;SDS011;18301;51.076;17.046;2023-11-21T21:14:37;25.58;;;14.85;;
31716;SDS011;18301;51.076;17.046;2023-11-21T21:19:39;34.78;;;18.20;;
31716;SDS011;18301;51.076;17.046;2023-11-21T21:24:41;29.65;;;14.95;;
31716;SDS011;18301;51.076;17.046;2023-11-21T21:29:42;30.10;;;15.93;;
31716;SDS011;18301;51.076;17.046;2023-11-21T21:34:44;29.45;;;16.40;;
31716;SDS011;18301;51.076;17.046;2023-11-21T21:39:45;28.90;;;16.02;;
31716;SDS011;18301;51.076;17.046;2023-11-21T21:44:47;25.83;;;15.38;;
31716;SDS011;18301;51.076;17.046;2023-11-21T21:49:48;27.77;;;16.02;;
31716;SDS011;18301;51.076;17.046;2023-11-21T21:54:50;29.65;;;16.73;;
31716;SDS011;18301;51.076;17.046;2023-11-21T21:59:52;30.40;;;17.23;;
31716;SDS011;18301;51.076;17.046;2023-11-21T22:04:55;28.80;;;17.23;;
31716;SDS011;18301;51.076;17.046;2023-11-21T22:09:56;31.20;;;17.92;;
31716;SDS011;18301;51.076;17.046;2023-11-21T22:14:58;32.08;;;18.00;;
31716;SDS011;18301;51.076;17.046;2023-11-21T22:19:59;30.45;;;17.00;;
31716;SDS011;18301;51.076;17.046;2023-11-21T22:25:01;36.72;;;20.15;;
31716;SDS011;18301;51.076;17.046;2023-11-21T22:30:05;32.80;;;18.85;;
31716;SDS011;18301;51.076;17.046;2023-11-21T22:35:07;34.63;;;18.77;;
31716;SDS011;18301;51.076;17.046;2023-11-21T22:40:10;32.88;;;18.35;;
31716;SDS011;18301;51.076;17.046;2023-11-21T22:45:12;33.88;;;18.60;;
31716;SDS011;18301;51.076;17.046;2023-11-21T22:50:13;31.70;;;17.77;;
31716;SDS011;18301;51.076;17.046;2023-11-21T22:55:15;33.88;;;17.30;;
31716;SDS011;18301;51.076;17.046;2023-11-21T23:00:16;33.03;;;17.92;;
31716;SDS011;18301;51.076;17.046;2023-11-21T23:05:22;31.33;;;16.98;;
31716;SDS011;18301;51.076;17.046;2023-11-21T23:10:23;32.22;;;18.15;;
31716;SDS011;18301;51.076;17.046;2023-11-21T23:15:25;32.20;;;17.38;;
31716;SDS011;18301;51.076;17.046;2023-11-21T23:20:27;30.85;;;17.50;;
31716;SDS011;18301;51.076;17.046;2023-11-21T23:25:28;29.10;;;16.10;;
31716;SDS011;18301;51.076;17.046;2023-11-21T23:30:30;31.48;;;17.30;;
31716;SDS011;18301;51.076;17.046;2023-11-21T23:35:31;31.58;;;16.58;;
31716;SDS011;18301;51.076;17.046;2023-11-21T23:40:33;30.63;;;16.98;;
31716;SDS011;18301;51.076;17.046;2023-11-21T23:45:35;32.45;;;18.00;;
31716;SDS011;18301;51.076;17.046;2023-11-21T23:50:36;33.22;;;17.85;;
31716;SDS011;18301;51.076;17.046;2023-11-21T23:55:38;33.65;;;17.13;;
